sensor_id;sensor_type;location;lat;lon;timestamp;P1;durP1;ratioP1;P2;durP2;ratioP2
11471;SDS011;47430;50.808;4.388;2022-09-09T00:02:16;4.25;;;1.50;;
11471;SDS011;47430;50.808;4.388;2022-09-09T00:04:46;1.80;;;1.30;;
11471;SDS011;47430;50.808;4.388;2022-09-09T00:07:20;3.88;;;1.40;;
11471;SDS011;47430;50.808;4.388;2022-09-09T00:09:52;2.65;;;1.25;;
11471;SDS011;47430;50.808;4.388;2022-09-09T00:15:11;5.43;;;1.80;;
11471;SDS011;47430;50.808;4.388;2022-09-09T00:17:38;2.30;;;1.20;;
11471;SDS011;47430;50.808;4.388;2022-09-09T00:20:13;5.18;;;1.60;;
11471;SDS011;47430;50.808;4.388;2022-09-09T00:22:43;6.03;;;1.77;;
11471;SDS011;47430;50.808;4.388;2022-09-09T00:25:14;3.63;;;1.40;;
11471;SDS011;47430;50.808;4.388;2022-09-09T00:32:36;6.15;;;1.80;;
11471;SDS011;47430;50.808;4.388;2022-09-09T00:35:04;3.40;;;1.40;;
11471;SDS011;47430;50.808;4.388;2022-09-09T00:37:40;4.10;;;1.55;;
11471;SDS011;47430;50.808;4.388;2022-09-09T00:40:24;2.22;;;1.20;;
11471;SDS011;47430;50.808;4.388;2022-09-09T00:42:58;4.05;;;1.65;;
11471;SDS011;47430;50.808;4.388;2022-09-09T00:48:00;2.35;;;1.45;;
11471;SDS011;47430;50.808;4.388;2022-09-09T00:50:35;5.38;;;1.65;;
11471;SDS011;47430;50.808;4.388;2022-09-09T00:56:14;6.22;;;1.83;;
11471;SDS011;47430;50.808;4.388;2022-09-09T00:58:47;3.13;;;1.35;;
11471;SDS011;47430;50.808;4.388;2022-09-09T01:01:18;2.38;;;1.40;;
11471;SDS011;47430;50.808;4.388;2022-09-09T01:03:46;5.20;;;1.63;;
11471;SDS011;47430;50.808;4.388;2022-09-09T01:06:29;6.82;;;1.58;;
11471;SDS011;47430;50.808;4.388;2022-09-09T01:11:33;5.93;;;1.60;;
11471;SDS011;47430;50.808;4.388;2022-09-09T01:14:10;4.40;;;1.52;;
11471;SDS011;47430;50.808;4.388;2022-09-09T01:16:38;5.07;;;2.20;;
11471;SDS011;47430;50.808;4.388;2022-09-09T01:19:04;4.10;;;1.50;;
11471;SDS011;47430;50.808;4.388;2022-09-09T01:21:45;4.25;;;1.48;;
11471;SDS011;47430;50.808;4.388;2022-09-09T01:26:58;2.88;;;1.40;;
11471;SDS011;47430;50.808;4.388;2022-09-09T01:29:26;3.85;;;1.70;;
11471;SDS011;47430;50.808;4.388;2022-09-09T01:31:56;4.07;;;1.40;;
11471;SDS011;47430;50.808;4.388;2022-09-09T01:34:23;3.15;;;1.45;;
11471;SDS011;47430;50.808;4.388;2022-09-09T01:39:19;3.85;;;1.60;;
11471;SDS011;47430;50.808;4.388;2022-09-09T01:41:48;5.85;;;1.98;;
11471;SDS011;47430;50.808;4.388;2022-09-09T01:44:16;5.40;;;1.83;;
11471;SDS011;47430;50.808;4.388;2022-09-09T01:46:43;3.70;;;1.50;;
11471;SDS011;47430;50.808;4.388;2022-09-09T01:49:09;6.97;;;1.50;;
11471;SDS011;47430;50.808;4.388;2022-09-09T01:51:36;8.10;;;1.90;;
11471;SDS011;47430;50.808;4.388;2022-09-09T01:54:03;6.22;;;2.15;;
11471;SDS011;47430;50.808;4.388;2022-09-09T02:04:44;5.95;;;1.90;;
11471;SDS011;47430;50.808;4.388;2022-09-09T02:07:14;9.52;;;1.73;;
11471;SDS011;47430;50.808;4.388;2022-09-09T02:09:47;6.30;;;2.05;;
11471;SDS011;47430;50.808;4.388;2022-09-09T02:12:16;4.65;;;1.67;;
11471;SDS011;47430;50.808;4.388;2022-09-09T02:14:47;11.02;;;2.10;;
11471;SDS011;47430;50.808;4.388;2022-09-09T02:17:15;3.35;;;1.95;;
11471;SDS011;47430;50.808;4.388;2022-09-09T02:19:48;8.98;;;1.55;;
11471;SDS011;47430;50.808;4.388;2022-09-09T02:22:18;8.07;;;1.88;;
11471;SDS011;47430;50.808;4.388;2022-09-09T02:24:46;14.25;;;2.33;;
11471;SDS011;47430;50.808;4.388;2022-09-09T02:27:12;7.30;;;2.28;;
11471;SDS011;47430;50.808;4.388;2022-09-09T02:29:41;6.05;;;2.08;;
11471;SDS011;47430;50.808;4.388;2022-09-09T02:32:09;6.47;;;2.00;;
11471;SDS011;47430;50.808;4.388;2022-09-09T02:34:39;4.70;;;2.22;;
11471;SDS011;47430;50.808;4.388;2022-09-09T02:37:06;5.35;;;2.08;;
11471;SDS011;47430;50.808;4.388;2022-09-09T02:39:33;10.40;;;2.10;;
11471;SDS011;47430;50.808;4.388;2022-09-09T02:41:59;9.00;;;2.22;;
11471;SDS011;47430;50.808;4.388;2022-09-09T02:44:28;10.85;;;1.90;;
11471;SDS011;47430;50.808;4.388;2022-09-09T02:49:40;12.02;;;2.53;;
11471;SDS011;47430;50.808;4.388;2022-09-09T02:52:07;8.45;;;1.95;;
11471;SDS011;47430;50.808;4.388;2022-09-09T02:54:37;8.68;;;3.05;;
11471;SDS011;47430;50.808;4.388;2022-09-09T02:57:08;8.57;;;2.13;;
11471;SDS011;47430;50.808;4.388;2022-09-09T02:59:39;5.82;;;2.17;;
11471;SDS011;47430;50.808;4.388;2022-09-09T03:02:08;9.60;;;1.92;;
11471;SDS011;47430;50.808;4.388;2022-09-09T03:04:35;11.48;;;2.08;;
11471;SDS011;47430;50.808;4.388;2022-09-09T03:07:02;9.13;;;2.28;;
11471;SDS011;47430;50.808;4.388;2022-09-09T03:09:28;8.50;;;2.53;;
11471;SDS011;47430;50.808;4.388;2022-09-09T03:11:54;8.32;;;2.13;;
11471;SDS011;47430;50.808;4.388;2022-09-09T03:14:21;5.35;;;2.03;;
11471;SDS011;47430;50.808;4.388;2022-09-09T03:16:49;4.10;;;1.67;;
11471;SDS011;47430;50.808;4.388;2022-09-09T03:19:15;2.88;;;1.77;;
11471;SDS011;47430;50.808;4.388;2022-09-09T03:21:42;9.50;;;2.22;;
11471;SDS011;47430;50.808;4.388;2022-09-09T03:24:08;4.65;;;1.85;;
11471;SDS011;47430;50.808;4.388;2022-09-09T03:26:40;7.38;;;2.60;;
11471;SDS011;47430;50.808;4.388;2022-09-09T03:29:06;7.18;;;2.20;;
11471;SDS011;47430;50.808;4.388;2022-09-09T03:31:33;5.05;;;1.80;;
11471;SDS011;47430;50.808;4.388;2022-09-09T03:34:01;8.18;;;2.00;;
11471;SDS011;47430;50.808;4.388;2022-09-09T03:36:27;7.15;;;2.13;;
11471;SDS011;47430;50.808;4.388;2022-09-09T03:38:54;10.57;;;2.88;;
11471;SDS011;47430;50.808;4.388;2022-09-09T03:41:21;10.75;;;2.30;;
11471;SDS011;47430;50.808;4.388;2022-09-09T03:43:49;7.70;;;2.28;;
11471;SDS011;47430;50.808;4.388;2022-09-09T03:46:15;6.22;;;2.35;;
11471;SDS011;47430;50.808;4.388;2022-09-09T03:48:41;7.75;;;2.40;;
11471;SDS011;47430;50.808;4.388;2022-09-09T03:51:10;7.88;;;2.47;;
11471;SDS011;47430;50.808;4.388;2022-09-09T03:53:36;10.40;;;2.17;;
11471;SDS011;47430;50.808;4.388;2022-09-09T03:56:03;5.03;;;2.25;;
11471;SDS011;47430;50.808;4.388;2022-09-09T03:58:32;9.57;;;3.40;;
11471;SDS011;47430;50.808;4.388;2022-09-09T04:03:50;11.50;;;2.92;;
11471;SDS011;47430;50.808;4.388;2022-09-09T04:06:17;6.75;;;2.28;;
11471;SDS011;47430;50.808;4.388;2022-09-09T04:08:45;6.07;;;2.38;;
11471;SDS011;47430;50.808;4.388;2022-09-09T04:11:13;7.13;;;2.20;;
11471;SDS011;47430;50.808;4.388;2022-09-09T04:13:40;9.10;;;2.50;;
11471;SDS011;47430;50.808;4.388;2022-09-09T04:16:06;14.20;;;3.50;;
11471;SDS011;47430;50.808;4.388;2022-09-09T04:18:33;6.22;;;2.20;;
11471;SDS011;47430;50.808;4.388;2022-09-09T04:20:59;8.18;;;2.30;;
11471;SDS011;47430;50.808;4.388;2022-09-09T04:23:26;8.65;;;2.60;;
11471;SDS011;47430;50.808;4.388;2022-09-09T04:25:54;7.30;;;2.33;;
11471;SDS011;47430;50.808;4.388;2022-09-09T04:28:22;9.13;;;2.95;;
11471;SDS011;47430;50.808;4.388;2022-09-09T04:30:48;7.13;;;3.22;;
11471;SDS011;47430;50.808;4.388;2022-09-09T04:33:14;10.15;;;3.58;;
11471;SDS011;47430;50.808;4.388;2022-09-09T04:35:49;6.47;;;2.40;;
11471;SDS011;47430;50.808;4.388;2022-09-09T04:38:16;7.18;;;2.30;;
11471;SDS011;47430;50.808;4.388;2022-09-09T04:40:46;8.55;;;2.30;;
11471;SDS011;47430;50.808;4.388;2022-09-09T04:43:13;8.90;;;2.47;;
11471;SDS011;47430;50.808;4.388;2022-09-09T04:45:42;7.82;;;2.83;;
11471;SDS011;47430;50.808;4.388;2022-09-09T04:48:08;14.60;;;2.95;;
11471;SDS011;47430;50.808;4.388;2022-09-09T04:50:34;9.30;;;2.60;;
11471;SDS011;47430;50.808;4.388;2022-09-09T04:53:01;7.28;;;2.25;;
11471;SDS011;47430;50.808;4.388;2022-09-09T04:55:28;9.18;;;3.00;;
11471;SDS011;47430;50.808;4.388;2022-09-09T04:57:55;9.25;;;2.58;;
11471;SDS011;47430;50.808;4.388;2022-09-09T05:00:22;14.32;;;2.90;;
11471;SDS011;47430;50.808;4.388;2022-09-09T05:02:48;8.52;;;2.10;;
11471;SDS011;47430;50.808;4.388;2022-09-09T05:05:14;12.63;;;3.22;;
11471;SDS011;47430;50.808;4.388;2022-09-09T05:07:41;13.32;;;2.85;;
11471;SDS011;47430;50.808;4.388;2022-09-09T05:10:08;9.07;;;2.97;;
11471;SDS011;47430;50.808;4.388;2022-09-09T05:12:34;11.90;;;2.53;;
11471;SDS011;47430;50.808;4.388;2022-09-09T05:15:00;8.05;;;2.28;;
11471;SDS011;47430;50.808;4.388;2022-09-09T05:17:27;12.25;;;3.00;;
11471;SDS011;47430;50.808;4.388;2022-09-09T05:19:53;10.50;;;3.00;;
11471;SDS011;47430;50.808;4.388;2022-09-09T05:22:20;11.15;;;2.60;;
11471;SDS011;47430;50.808;4.388;2022-09-09T05:24:48;10.77;;;2.67;;
11471;SDS011;47430;50.808;4.388;2022-09-09T05:27:15;8.45;;;3.00;;
11471;SDS011;47430;50.808;4.388;2022-09-09T05:29:42;9.82;;;2.80;;
11471;SDS011;47430;50.808;4.388;2022-09-09T05:32:11;8.23;;;2.90;;
11471;SDS011;47430;50.808;4.388;2022-09-09T05:34:40;6.40;;;2.58;;
11471;SDS011;47430;50.808;4.388;2022-09-09T05:37:06;8.95;;;2.47;;
11471;SDS011;47430;50.808;4.388;2022-09-09T05:39:33;8.63;;;2.42;;
11471;SDS011;47430;50.808;4.388;2022-09-09T05:42:01;11.10;;;3.75;;
11471;SDS011;47430;50.808;4.388;2022-09-09T05:44:30;10.68;;;2.70;;
11471;SDS011;47430;50.808;4.388;2022-09-09T05:46:56;7.15;;;2.53;;
11471;SDS011;47430;50.808;4.388;2022-09-09T05:49:22;5.38;;;2.13;;
11471;SDS011;47430;50.808;4.388;2022-09-09T05:51:49;10.95;;;2.80;;
11471;SDS011;47430;50.808;4.388;2022-09-09T05:54:16;9.52;;;3.17;;
11471;SDS011;47430;50.808;4.388;2022-09-09T05:56:42;7.80;;;2.80;;
11471;SDS011;47430;50.808;4.388;2022-09-09T05:59:09;10.85;;;2.78;;
11471;SDS011;47430;50.808;4.388;2022-09-09T06:01:36;7.07;;;2.92;;
11471;SDS011;47430;50.808;4.388;2022-09-09T06:04:05;11.10;;;3.03;;
11471;SDS011;47430;50.808;4.388;2022-09-09T06:06:36;5.97;;;2.03;;
11471;SDS011;47430;50.808;4.388;2022-09-09T06:09:04;10.75;;;2.13;;
11471;SDS011;47430;50.808;4.388;2022-09-09T06:11:31;11.55;;;2.38;;
11471;SDS011;47430;50.808;4.388;2022-09-09T06:14:00;13.85;;;3.03;;
11471;SDS011;47430;50.808;4.388;2022-09-09T06:16:27;6.95;;;2.30;;
11471;SDS011;47430;50.808;4.388;2022-09-09T06:18:54;7.95;;;2.20;;
11471;SDS011;47430;50.808;4.388;2022-09-09T06:21:26;4.97;;;2.28;;
11471;SDS011;47430;50.808;4.388;2022-09-09T06:23:52;5.38;;;2.47;;
11471;SDS011;47430;50.808;4.388;2022-09-09T06:28:45;14.30;;;2.38;;
11471;SDS011;47430;50.808;4.388;2022-09-09T06:31:13;8.68;;;2.55;;
11471;SDS011;47430;50.808;4.388;2022-09-09T06:33:42;7.10;;;1.92;;
11471;SDS011;47430;50.808;4.388;2022-09-09T06:36:11;9.40;;;2.33;;
11471;SDS011;47430;50.808;4.388;2022-09-09T06:38:37;8.85;;;2.17;;
11471;SDS011;47430;50.808;4.388;2022-09-09T06:41:03;10.88;;;2.10;;
11471;SDS011;47430;50.808;4.388;2022-09-09T06:43:30;10.57;;;2.60;;
11471;SDS011;47430;50.808;4.388;2022-09-09T06:45:57;7.55;;;2.17;;
11471;SDS011;47430;50.808;4.388;2022-09-09T06:48:24;9.63;;;2.42;;
11471;SDS011;47430;50.808;4.388;2022-09-09T06:53:32;8.93;;;2.47;;
11471;SDS011;47430;50.808;4.388;2022-09-09T06:56:02;7.82;;;2.20;;
11471;SDS011;47430;50.808;4.388;2022-09-09T06:58:31;10.13;;;2.42;;
11471;SDS011;47430;50.808;4.388;2022-09-09T07:01:20;5.07;;;2.20;;
11471;SDS011;47430;50.808;4.388;2022-09-09T07:03:48;12.57;;;2.65;;
11471;SDS011;47430;50.808;4.388;2022-09-09T07:06:16;6.88;;;2.50;;
11471;SDS011;47430;50.808;4.388;2022-09-09T07:08:43;7.38;;;1.98;;
11471;SDS011;47430;50.808;4.388;2022-09-09T07:11:12;14.65;;;2.15;;
11471;SDS011;47430;50.808;4.388;2022-09-09T07:13:38;6.97;;;2.42;;
11471;SDS011;47430;50.808;4.388;2022-09-09T07:16:05;7.50;;;2.50;;
11471;SDS011;47430;50.808;4.388;2022-09-09T07:18:32;5.95;;;1.85;;
11471;SDS011;47430;50.808;4.388;2022-09-09T07:20:58;12.32;;;2.85;;
11471;SDS011;47430;50.808;4.388;2022-09-09T07:23:24;5.63;;;2.03;;
11471;SDS011;47430;50.808;4.388;2022-09-09T07:25:51;8.40;;;2.40;;
11471;SDS011;47430;50.808;4.388;2022-09-09T07:28:17;8.75;;;2.08;;
11471;SDS011;47430;50.808;4.388;2022-09-09T07:30:43;7.55;;;2.20;;
11471;SDS011;47430;50.808;4.388;2022-09-09T07:33:09;8.98;;;2.33;;
11471;SDS011;47430;50.808;4.388;2022-09-09T07:35:35;15.80;;;2.45;;
11471;SDS011;47430;50.808;4.388;2022-09-09T07:38:04;16.50;;;2.78;;
11471;SDS011;47430;50.808;4.388;2022-09-09T07:40:32;7.10;;;2.03;;
11471;SDS011;47430;50.808;4.388;2022-09-09T07:42:59;9.50;;;3.15;;
11471;SDS011;47430;50.808;4.388;2022-09-09T07:45:27;12.18;;;3.10;;
11471;SDS011;47430;50.808;4.388;2022-09-09T07:47:53;12.85;;;3.05;;
11471;SDS011;47430;50.808;4.388;2022-09-09T07:50:21;9.93;;;3.25;;
11471;SDS011;47430;50.808;4.388;2022-09-09T07:52:48;21.27;;;4.25;;
11471;SDS011;47430;50.808;4.388;2022-09-09T07:55:15;9.10;;;2.70;;
11471;SDS011;47430;50.808;4.388;2022-09-09T07:57:41;10.48;;;3.20;;
11471;SDS011;47430;50.808;4.388;2022-09-09T08:00:10;10.98;;;2.75;;
11471;SDS011;47430;50.808;4.388;2022-09-09T08:02:37;5.55;;;2.55;;
11471;SDS011;47430;50.808;4.388;2022-09-09T08:05:04;8.68;;;2.72;;
11471;SDS011;47430;50.808;4.388;2022-09-09T08:07:31;8.50;;;2.47;;
11471;SDS011;47430;50.808;4.388;2022-09-09T08:09:57;11.00;;;3.00;;
11471;SDS011;47430;50.808;4.388;2022-09-09T08:12:24;12.68;;;2.92;;
11471;SDS011;47430;50.808;4.388;2022-09-09T08:14:50;10.25;;;2.70;;
11471;SDS011;47430;50.808;4.388;2022-09-09T08:17:16;4.60;;;1.98;;
11471;SDS011;47430;50.808;4.388;2022-09-09T08:19:42;5.72;;;2.25;;
11471;SDS011;47430;50.808;4.388;2022-09-09T08:22:09;10.50;;;2.83;;
11471;SDS011;47430;50.808;4.388;2022-09-09T08:24:35;13.32;;;2.67;;
11471;SDS011;47430;50.808;4.388;2022-09-09T08:27:01;8.50;;;2.45;;
11471;SDS011;47430;50.808;4.388;2022-09-09T08:29:28;8.45;;;2.35;;
11471;SDS011;47430;50.808;4.388;2022-09-09T08:31:55;8.73;;;2.63;;
11471;SDS011;47430;50.808;4.388;2022-09-09T08:34:22;8.95;;;2.30;;
11471;SDS011;47430;50.808;4.388;2022-09-09T08:36:51;8.57;;;2.50;;
11471;SDS011;47430;50.808;4.388;2022-09-09T08:39:20;5.20;;;2.28;;
11471;SDS011;47430;50.808;4.388;2022-09-09T08:44:36;7.05;;;2.28;;
11471;SDS011;47430;50.808;4.388;2022-09-09T08:47:28;4.45;;;2.05;;
11471;SDS011;47430;50.808;4.388;2022-09-09T08:50:02;11.18;;;2.58;;
11471;SDS011;47430;50.808;4.388;2022-09-09T08:57:43;9.48;;;2.10;;
11471;SDS011;47430;50.808;4.388;2022-09-09T09:00:11;10.45;;;2.53;;
11471;SDS011;47430;50.808;4.388;2022-09-09T09:02:39;5.13;;;2.30;;
11471;SDS011;47430;50.808;4.388;2022-09-09T09:12:55;6.80;;;2.60;;
11471;SDS011;47430;50.808;4.388;2022-09-09T09:15:27;9.55;;;3.53;;
11471;SDS011;47430;50.808;4.388;2022-09-09T09:17:55;13.38;;;2.50;;
11471;SDS011;47430;50.808;4.388;2022-09-09T09:20:42;12.98;;;3.00;;
11471;SDS011;47430;50.808;4.388;2022-09-09T09:23:12;8.18;;;2.47;;
11471;SDS011;47430;50.808;4.388;2022-09-09T09:25:42;8.07;;;2.70;;
11471;SDS011;47430;50.808;4.388;2022-09-09T09:30:36;10.77;;;2.92;;
11471;SDS011;47430;50.808;4.388;2022-09-09T09:35:44;10.10;;;2.38;;
11471;SDS011;47430;50.808;4.388;2022-09-09T09:40:50;7.65;;;2.63;;
11471;SDS011;47430;50.808;4.388;2022-09-09T09:43:20;13.18;;;2.90;;
11471;SDS011;47430;50.808;4.388;2022-09-09T09:45:48;7.05;;;2.45;;
11471;SDS011;47430;50.808;4.388;2022-09-09T09:48:17;8.55;;;2.50;;
11471;SDS011;47430;50.808;4.388;2022-09-09T09:53:17;7.05;;;2.40;;
11471;SDS011;47430;50.808;4.388;2022-09-09T09:55:47;4.90;;;2.33;;
11471;SDS011;47430;50.808;4.388;2022-09-09T09:58:15;5.10;;;2.35;;
11471;SDS011;47430;50.808;4.388;2022-09-09T10:00:48;8.43;;;2.33;;
11471;SDS011;47430;50.808;4.388;2022-09-09T10:03:22;11.30;;;3.25;;
11471;SDS011;47430;50.808;4.388;2022-09-09T10:05:49;8.27;;;2.67;;
11471;SDS011;47430;50.808;4.388;2022-09-09T10:08:16;4.80;;;2.20;;
11471;SDS011;47430;50.808;4.388;2022-09-09T10:19:02;6.90;;;2.67;;
11471;SDS011;47430;50.808;4.388;2022-09-09T10:29:27;5.57;;;2.33;;
11471;SDS011;47430;50.808;4.388;2022-09-09T10:37:04;6.35;;;2.58;;
11471;SDS011;47430;50.808;4.388;2022-09-09T10:39:37;12.32;;;2.00;;
11471;SDS011;47430;50.808;4.388;2022-09-09T10:42:14;8.70;;;2.60;;
11471;SDS011;47430;50.808;4.388;2022-09-09T10:49:58;5.95;;;2.53;;
11471;SDS011;47430;50.808;4.388;2022-09-09T10:52:29;9.43;;;2.60;;
11471;SDS011;47430;50.808;4.388;2022-09-09T10:55:02;9.07;;;2.35;;
11471;SDS011;47430;50.808;4.388;2022-09-09T10:57:51;11.27;;;2.97;;
11471;SDS011;47430;50.808;4.388;2022-09-09T11:02:44;6.85;;;2.50;;
11471;SDS011;47430;50.808;4.388;2022-09-09T11:07:44;7.18;;;2.08;;
11471;SDS011;47430;50.808;4.388;2022-09-09T11:10:18;10.25;;;2.22;;
11471;SDS011;47430;50.808;4.388;2022-09-09T11:12:49;7.05;;;1.92;;
11471;SDS011;47430;50.808;4.388;2022-09-09T11:17:46;11.43;;;1.73;;
11471;SDS011;47430;50.808;4.388;2022-09-09T11:20:14;4.22;;;1.77;;
11471;SDS011;47430;50.808;4.388;2022-09-09T11:30:05;6.25;;;2.05;;
11471;SDS011;47430;50.808;4.388;2022-09-09T11:32:41;9.10;;;2.72;;
11471;SDS011;47430;50.808;4.388;2022-09-09T11:42:45;2.67;;;1.70;;
11471;SDS011;47430;50.808;4.388;2022-09-09T11:45:21;4.15;;;1.67;;
11471;SDS011;47430;50.808;4.388;2022-09-09T11:47:52;5.72;;;2.20;;
11471;SDS011;47430;50.808;4.388;2022-09-09T11:52:45;5.78;;;1.92;;
11471;SDS011;47430;50.808;4.388;2022-09-09T11:55:25;8.35;;;1.95;;
11471;SDS011;47430;50.808;4.388;2022-09-09T11:58:01;6.60;;;1.92;;
11471;SDS011;47430;50.808;4.388;2022-09-09T12:00:38;3.63;;;1.88;;
11471;SDS011;47430;50.808;4.388;2022-09-09T12:03:05;5.30;;;2.10;;
11471;SDS011;47430;50.808;4.388;2022-09-09T12:05:41;7.50;;;1.67;;
11471;SDS011;47430;50.808;4.388;2022-09-09T12:08:11;8.07;;;2.65;;
11471;SDS011;47430;50.808;4.388;2022-09-09T12:10:52;10.60;;;2.10;;
11471;SDS011;47430;50.808;4.388;2022-09-09T12:13:22;3.72;;;1.98;;
11471;SDS011;47430;50.808;4.388;2022-09-09T12:15:49;5.90;;;1.88;;
11471;SDS011;47430;50.808;4.388;2022-09-09T12:18:33;6.85;;;1.60;;
11471;SDS011;47430;50.808;4.388;2022-09-09T12:26:28;8.13;;;1.95;;
11471;SDS011;47430;50.808;4.388;2022-09-09T12:31:24;6.15;;;1.92;;
11471;SDS011;47430;50.808;4.388;2022-09-09T12:33:51;9.02;;;1.85;;
11471;SDS011;47430;50.808;4.388;2022-09-09T12:36:38;6.88;;;1.80;;
11471;SDS011;47430;50.808;4.388;2022-09-09T12:41:57;2.08;;;1.35;;
11471;SDS011;47430;50.808;4.388;2022-09-09T12:44:23;6.60;;;2.05;;
11471;SDS011;47430;50.808;4.388;2022-09-09T12:46:50;5.25;;;1.55;;
11471;SDS011;47430;50.808;4.388;2022-09-09T12:49:24;5.18;;;2.42;;
11471;SDS011;47430;50.808;4.388;2022-09-09T12:51:51;3.67;;;1.55;;
11471;SDS011;47430;50.808;4.388;2022-09-09T12:54:18;6.40;;;1.92;;
11471;SDS011;47430;50.808;4.388;2022-09-09T12:56:45;4.97;;;1.90;;
11471;SDS011;47430;50.808;4.388;2022-09-09T12:59:25;5.47;;;1.73;;
11471;SDS011;47430;50.808;4.388;2022-09-09T13:01:56;6.40;;;1.83;;
11471;SDS011;47430;50.808;4.388;2022-09-09T13:04:22;4.28;;;1.45;;
11471;SDS011;47430;50.808;4.388;2022-09-09T13:06:48;3.33;;;1.58;;
11471;SDS011;47430;50.808;4.388;2022-09-09T13:09:14;4.82;;;1.67;;
11471;SDS011;47430;50.808;4.388;2022-09-09T13:11:42;5.30;;;1.73;;
11471;SDS011;47430;50.808;4.388;2022-09-09T13:14:13;9.52;;;1.92;;
11471;SDS011;47430;50.808;4.388;2022-09-09T13:16:43;6.88;;;2.08;;
11471;SDS011;47430;50.808;4.388;2022-09-09T13:19:15;4.72;;;1.50;;
11471;SDS011;47430;50.808;4.388;2022-09-09T13:21:42;3.80;;;1.70;;
11471;SDS011;47430;50.808;4.388;2022-09-09T13:26:58;6.07;;;1.30;;
11471;SDS011;47430;50.808;4.388;2022-09-09T13:29:27;5.72;;;1.63;;
11471;SDS011;47430;50.808;4.388;2022-09-09T13:31:53;5.30;;;1.70;;
11471;SDS011;47430;50.808;4.388;2022-09-09T13:36:52;5.88;;;1.38;;
11471;SDS011;47430;50.808;4.388;2022-09-09T13:39:20;2.95;;;1.10;;
11471;SDS011;47430;50.808;4.388;2022-09-09T13:41:46;5.75;;;1.30;;
11471;SDS011;47430;50.808;4.388;2022-09-09T13:44:48;3.08;;;1.42;;
11471;SDS011;47430;50.808;4.388;2022-09-09T13:49:34;4.43;;;1.92;;
11471;SDS011;47430;50.808;4.388;2022-09-09T13:52:04;3.22;;;1.20;;
11471;SDS011;47430;50.808;4.388;2022-09-09T13:54:32;3.72;;;1.20;;
11471;SDS011;47430;50.808;4.388;2022-09-09T13:56:58;3.83;;;1.60;;
11471;SDS011;47430;50.808;4.388;2022-09-09T13:59:26;4.18;;;1.50;;
11471;SDS011;47430;50.808;4.388;2022-09-09T14:01:52;3.17;;;1.50;;
11471;SDS011;47430;50.808;4.388;2022-09-09T14:04:19;2.08;;;1.58;;
11471;SDS011;47430;50.808;4.388;2022-09-09T14:06:48;3.42;;;1.63;;
11471;SDS011;47430;50.808;4.388;2022-09-09T14:09:15;3.53;;;1.40;;
11471;SDS011;47430;50.808;4.388;2022-09-09T14:11:42;6.05;;;1.80;;
11471;SDS011;47430;50.808;4.388;2022-09-09T14:14:08;4.22;;;1.70;;
11471;SDS011;47430;50.808;4.388;2022-09-09T14:16:34;4.18;;;1.60;;
11471;SDS011;47430;50.808;4.388;2022-09-09T14:19:00;3.22;;;1.73;;
11471;SDS011;47430;50.808;4.388;2022-09-09T14:21:26;3.45;;;1.90;;
11471;SDS011;47430;50.808;4.388;2022-09-09T14:23:53;3.00;;;1.50;;
11471;SDS011;47430;50.808;4.388;2022-09-09T14:26:20;3.80;;;1.73;;
11471;SDS011;47430;50.808;4.388;2022-09-09T14:28:46;5.82;;;1.73;;
11471;SDS011;47430;50.808;4.388;2022-09-09T14:31:13;5.22;;;1.65;;
11471;SDS011;47430;50.808;4.388;2022-09-09T14:33:41;6.38;;;1.95;;
11471;SDS011;47430;50.808;4.388;2022-09-09T14:36:07;3.95;;;1.58;;
11471;SDS011;47430;50.808;4.388;2022-09-09T14:38:34;4.13;;;1.73;;
11471;SDS011;47430;50.808;4.388;2022-09-09T14:41:03;4.38;;;2.25;;
11471;SDS011;47430;50.808;4.388;2022-09-09T14:43:30;6.63;;;2.00;;
11471;SDS011;47430;50.808;4.388;2022-09-09T14:45:57;4.47;;;1.60;;
11471;SDS011;47430;50.808;4.388;2022-09-09T14:48:23;7.38;;;1.95;;
11471;SDS011;47430;50.808;4.388;2022-09-09T14:50:49;3.25;;;1.45;;
11471;SDS011;47430;50.808;4.388;2022-09-09T14:53:16;5.05;;;1.80;;
11471;SDS011;47430;50.808;4.388;2022-09-09T14:55:42;4.18;;;1.55;;
11471;SDS011;47430;50.808;4.388;2022-09-09T14:58:08;5.20;;;1.85;;
11471;SDS011;47430;50.808;4.388;2022-09-09T15:00:34;3.35;;;1.23;;
11471;SDS011;47430;50.808;4.388;2022-09-09T15:03:00;4.45;;;1.60;;
11471;SDS011;47430;50.808;4.388;2022-09-09T15:05:26;5.03;;;1.50;;
11471;SDS011;47430;50.808;4.388;2022-09-09T15:07:52;3.42;;;1.58;;
11471;SDS011;47430;50.808;4.388;2022-09-09T15:10:19;4.05;;;1.65;;
11471;SDS011;47430;50.808;4.388;2022-09-09T15:12:46;2.03;;;1.27;;
11471;SDS011;47430;50.808;4.388;2022-09-09T15:15:13;2.72;;;1.30;;
11471;SDS011;47430;50.808;4.388;2022-09-09T15:17:39;5.82;;;1.50;;
11471;SDS011;47430;50.808;4.388;2022-09-09T15:20:05;4.93;;;1.70;;
11471;SDS011;47430;50.808;4.388;2022-09-09T15:22:31;3.72;;;1.20;;
11471;SDS011;47430;50.808;4.388;2022-09-09T15:24:58;3.25;;;1.40;;
11471;SDS011;47430;50.808;4.388;2022-09-09T15:27:24;2.80;;;1.55;;
11471;SDS011;47430;50.808;4.388;2022-09-09T15:29:50;3.67;;;1.40;;
11471;SDS011;47430;50.808;4.388;2022-09-09T15:32:17;5.45;;;1.70;;
11471;SDS011;47430;50.808;4.388;2022-09-09T15:34:43;2.45;;;1.40;;
11471;SDS011;47430;50.808;4.388;2022-09-09T15:37:10;3.67;;;1.40;;
11471;SDS011;47430;50.808;4.388;2022-09-09T15:39:38;6.90;;;1.70;;
11471;SDS011;47430;50.808;4.388;2022-09-09T15:42:04;3.20;;;1.50;;
11471;SDS011;47430;50.808;4.388;2022-09-09T15:44:38;3.10;;;1.63;;
11471;SDS011;47430;50.808;4.388;2022-09-09T15:47:04;3.53;;;1.90;;
11471;SDS011;47430;50.808;4.388;2022-09-09T15:49:30;4.45;;;1.42;;
11471;SDS011;47430;50.808;4.388;2022-09-09T15:51:59;5.18;;;1.60;;
11471;SDS011;47430;50.808;4.388;2022-09-09T15:54:30;3.67;;;1.40;;
11471;SDS011;47430;50.808;4.388;2022-09-09T15:56:58;5.28;;;1.65;;
11471;SDS011;47430;50.808;4.388;2022-09-09T15:59:25;4.65;;;1.58;;
11471;SDS011;47430;50.808;4.388;2022-09-09T16:01:52;1.88;;;0.98;;
11471;SDS011;47430;50.808;4.388;2022-09-09T16:04:20;3.33;;;1.83;;
11471;SDS011;47430;50.808;4.388;2022-09-09T16:06:49;3.50;;;1.40;;
11471;SDS011;47430;50.808;4.388;2022-09-09T16:09:15;5.53;;;1.50;;
11471;SDS011;47430;50.808;4.388;2022-09-09T16:11:41;4.18;;;1.48;;
11471;SDS011;47430;50.808;4.388;2022-09-09T16:14:07;3.35;;;1.50;;
11471;SDS011;47430;50.808;4.388;2022-09-09T16:16:34;4.95;;;1.85;;
11471;SDS011;47430;50.808;4.388;2022-09-09T16:19:03;3.28;;;1.70;;
11471;SDS011;47430;50.808;4.388;2022-09-09T16:21:31;4.93;;;1.70;;
11471;SDS011;47430;50.808;4.388;2022-09-09T16:23:59;7.05;;;2.08;;
11471;SDS011;47430;50.808;4.388;2022-09-09T16:26:26;8.10;;;2.47;;
11471;SDS011;47430;50.808;4.388;2022-09-09T16:28:52;9.40;;;2.20;;
11471;SDS011;47430;50.808;4.388;2022-09-09T16:31:19;3.67;;;1.70;;
11471;SDS011;47430;50.808;4.388;2022-09-09T16:33:46;5.80;;;1.75;;
11471;SDS011;47430;50.808;4.388;2022-09-09T16:36:13;9.02;;;2.05;;
11471;SDS011;47430;50.808;4.388;2022-09-09T16:38:40;5.90;;;2.40;;
11471;SDS011;47430;50.808;4.388;2022-09-09T16:41:08;6.82;;;1.98;;
11471;SDS011;47430;50.808;4.388;2022-09-09T16:43:35;5.70;;;2.25;;
11471;SDS011;47430;50.808;4.388;2022-09-09T16:46:14;4.70;;;2.10;;
11471;SDS011;47430;50.808;4.388;2022-09-09T16:48:41;3.72;;;1.80;;
11471;SDS011;47430;50.808;4.388;2022-09-09T16:51:11;3.83;;;1.58;;
11471;SDS011;47430;50.808;4.388;2022-09-09T16:53:39;4.43;;;1.92;;
11471;SDS011;47430;50.808;4.388;2022-09-09T16:56:07;4.28;;;2.10;;
11471;SDS011;47430;50.808;4.388;2022-09-09T16:58:34;4.88;;;2.10;;
11471;SDS011;47430;50.808;4.388;2022-09-09T17:01:03;4.93;;;2.00;;
11471;SDS011;47430;50.808;4.388;2022-09-09T17:03:29;2.83;;;1.77;;
11471;SDS011;47430;50.808;4.388;2022-09-09T17:05:56;3.50;;;2.10;;
11471;SDS011;47430;50.808;4.388;2022-09-09T17:08:23;4.05;;;2.05;;
11471;SDS011;47430;50.808;4.388;2022-09-09T17:10:49;3.00;;;1.98;;